createdAt,value
2023-02-19T00:00:19.820Z,98547.52
2023-02-19T00:02:48.412Z,98546.11
2023-02-19T00:05:19.021Z,98547.97
2023-02-19T00:07:47.562Z,98546.02
2023-02-19T00:10:16.236Z,98548.70
2023-02-19T00:12:45.078Z,98542.49
2023-02-19T00:15:15.404Z,98545.08
2023-02-19T00:17:43.944Z,98541.60
2023-02-19T00:20:16.332Z,98540.83
2023-02-19T00:22:47.083Z,98537.09
2023-02-19T00:25:15.422Z,98532.85
2023-02-19T00:27:44.063Z,98532.59
2023-02-19T00:30:12.734Z,98533.90
2023-02-19T00:32:42.037Z,98535.45
2023-02-19T00:35:12.585Z,98538.21
2023-02-19T00:37:40.998Z,98537.23
2023-02-19T00:40:09.974Z,98541.71
2023-02-19T00:42:38.260Z,98542.17
2023-02-19T00:45:07.001Z,98542.70
2023-02-19T00:47:35.156Z,98543.38
2023-02-19T00:50:03.271Z,98540.43
2023-02-19T00:52:31.793Z,98542.45
2023-02-19T00:55:00.322Z,98545.66
2023-02-19T00:57:29.349Z,98551.95
2023-02-19T00:59:57.794Z,98557.17
2023-02-19T01:02:27.313Z,98558.85
2023-02-19T01:04:57.902Z,98561.63
2023-02-19T01:07:26.762Z,98563.25
2023-02-19T01:09:55.131Z,98562.66
2023-02-19T01:12:26.779Z,98564.87
2023-02-19T01:14:55.848Z,98563.15
2023-02-19T01:17:24.386Z,98562.89
2023-02-19T01:19:53.326Z,98561.91
2023-02-19T01:22:21.943Z,98557.20
2023-02-19T01:24:50.163Z,98557.83
2023-02-19T01:27:18.666Z,98554.99
2023-02-19T01:29:51.073Z,98562.11
2023-02-19T01:32:19.514Z,98570.38
2023-02-19T01:34:47.779Z,98570.54
2023-02-19T01:37:15.918Z,98564.67
2023-02-19T01:39:44.169Z,98570.27
2023-02-19T01:42:14.683Z,98573.27
2023-02-19T01:44:43.193Z,98572.77
2023-02-19T01:47:12.134Z,98572.96
2023-02-19T01:49:48.916Z,98569.66
2023-02-19T01:52:48.213Z,98570.59
2023-02-19T01:55:16.554Z,98574.25
2023-02-19T01:57:46.506Z,98577.24
2023-02-19T02:00:17.592Z,98579.08
2023-02-19T02:02:49.974Z,98582.52
2023-02-19T02:05:39.751Z,98586.55
2023-02-19T02:08:26.963Z,98598.45
2023-02-19T02:10:55.788Z,98605.27
2023-02-19T02:13:24.005Z,98599.63
2023-02-19T02:16:23.329Z,98601.05
2023-02-19T02:19:16.553Z,98609.77
2023-02-19T02:21:51.398Z,98614.58
2023-02-19T02:25:00.796Z,98611.88
2023-02-19T02:27:29.421Z,98617.32
2023-02-19T02:30:05.587Z,98618.80
2023-02-19T02:32:53.606Z,98621.77
2023-02-19T02:35:28.544Z,98621.51
2023-02-19T02:37:58.348Z,98625.96
2023-02-19T02:40:31.178Z,98622.29
2023-02-19T02:43:00.889Z,98621.48
2023-02-19T02:45:37.034Z,98620.81
2023-02-19T02:48:20.748Z,98628.30
2023-02-19T02:50:53.788Z,98633.16
2023-02-19T02:53:44.539Z,98628.85
2023-02-19T02:56:14.212Z,98639.88
2023-02-19T02:58:43.910Z,98642.23
2023-02-19T03:01:41.970Z,98642.06
2023-02-19T03:04:14.434Z,98641.29
2023-02-19T03:06:43.028Z,98647.12
2023-02-19T03:09:14.854Z,98653.70
2023-02-19T03:12:02.945Z,98651.45
2023-02-19T03:14:58.700Z,98652.09
2023-02-19T03:18:10.956Z,98654.38
2023-02-19T03:20:42.103Z,98655.71
2023-02-19T03:23:10.337Z,98660.89
2023-02-19T03:25:58.187Z,98669.41
2023-02-19T03:28:57.843Z,98671.14
2023-02-19T03:31:28.116Z,98666.15
2023-02-19T03:34:05.269Z,98663.72
2023-02-19T03:36:40.147Z,98668.83
2023-02-19T03:39:09.417Z,98673.80
2023-02-19T03:42:10.552Z,98678.36
2023-02-19T03:45:02.048Z,98686.55
2023-02-19T03:47:36.291Z,98695.06
2023-02-19T03:50:14.688Z,98696.80
2023-02-19T03:53:02.683Z,98697.90
2023-02-19T03:55:38.368Z,98703.41
2023-02-19T03:58:21.171Z,98694.61
2023-02-19T04:00:55.806Z,98691.04
2023-02-19T04:03:45.498Z,98683.24
2023-02-19T04:06:28.921Z,98680.00
2023-02-19T04:09:03.504Z,98684.48
2023-02-19T04:11:31.699Z,98687.95
2023-02-19T04:14:23.822Z,98687.05
2023-02-19T04:16:55.956Z,98685.40
2023-02-19T04:19:26.662Z,98692.13
2023-02-19T04:21:55.277Z,98692.84
2023-02-19T04:24:31.265Z,98698.34
2023-02-19T04:26:59.367Z,98701.45
2023-02-19T04:29:27.651Z,98702.34
2023-02-19T04:31:56.197Z,98704.23
2023-02-19T04:34:24.487Z,98706.92
2023-02-19T04:36:52.717Z,98711.42
2023-02-19T04:41:18.735Z,98717.58
2023-02-19T04:43:48.019Z,98720.00
2023-02-19T04:46:18.479Z,98720.58
2023-02-19T04:48:47.057Z,98723.89
2023-02-19T04:51:15.757Z,98727.02
2023-02-19T04:53:44.549Z,98724.20
2023-02-19T04:56:15.753Z,98723.95
2023-02-19T04:58:44.597Z,98726.92
2023-02-19T05:01:13.435Z,98732.81
2023-02-19T05:03:42.056Z,98740.94
2023-02-19T05:06:12.477Z,98744.38
2023-02-19T05:08:40.843Z,98747.17
2023-02-19T05:11:11.083Z,98745.48
2023-02-19T05:13:42.461Z,98748.33
2023-02-19T05:16:19.142Z,98753.23
2023-02-19T05:18:47.782Z,98755.02
2023-02-19T05:21:16.274Z,98752.41
2023-02-19T05:23:44.885Z,98752.23
2023-02-19T05:26:18.037Z,98754.58
2023-02-19T05:28:48.619Z,98760.17
2023-02-19T05:31:17.086Z,98760.77
2023-02-19T05:33:48.850Z,98762.60
2023-02-19T05:36:18.682Z,98766.89
2023-02-19T05:38:47.113Z,98765.27
2023-02-19T05:41:21.877Z,98773.08
2023-02-19T05:43:50.709Z,98775.27
2023-02-19T05:46:21.178Z,98777.99
2023-02-19T05:48:49.552Z,98773.66
2023-02-19T05:51:19.505Z,98779.21
2023-02-19T05:53:47.989Z,98787.38
2023-02-19T05:56:31.847Z,98790.64
2023-02-19T05:59:01.359Z,98791.21
2023-02-19T06:01:30.249Z,98791.27
2023-02-19T06:04:00.314Z,98793.48
2023-02-19T06:06:29.494Z,98794.71
2023-02-19T06:08:58.221Z,98797.98
2023-02-19T06:11:29.404Z,98797.54
2023-02-19T06:13:57.486Z,98794.95
2023-02-19T06:16:26.669Z,98793.38
2023-02-19T06:18:55.875Z,98788.66
2023-02-19T06:21:24.352Z,98790.44
2023-02-19T06:23:52.622Z,98782.13
2023-02-19T06:26:23.135Z,98790.05
2023-02-19T06:28:54.255Z,98787.98
2023-02-19T06:31:23.427Z,98792.23
2023-02-19T06:33:52.264Z,98796.75
2023-02-19T06:36:20.943Z,98795.06
2023-02-19T06:38:50.682Z,98787.10
2023-02-19T06:41:20.762Z,98793.59
2023-02-19T06:43:49.577Z,98799.21
2023-02-19T06:46:18.576Z,98802.31
2023-02-19T06:48:47.554Z,98804.96
2023-02-19T06:51:26.567Z,98807.64
2023-02-19T06:53:58.724Z,98810.55
2023-02-19T06:56:30.978Z,98807.88
2023-02-19T06:59:02.309Z,98805.17
2023-02-19T07:01:32.772Z,98798.82
2023-02-19T07:04:02.376Z,98803.26
2023-02-19T07:06:31.398Z,98797.28
2023-02-19T07:09:00.847Z,98797.58
2023-02-19T07:11:32.012Z,98796.27
2023-02-19T07:14:04.213Z,98801.29
2023-02-19T07:16:32.565Z,98802.96
2023-02-19T07:19:01.828Z,98803.30
2023-02-19T07:21:31.432Z,98802.70
2023-02-19T07:24:00.287Z,98804.83
2023-02-19T07:26:29.458Z,98802.09
2023-02-19T07:28:59.653Z,98799.24
2023-02-19T07:31:28.628Z,98800.52
2023-02-19T07:34:02.590Z,98799.67
2023-02-19T07:36:30.976Z,98799.70
2023-02-19T07:38:59.987Z,98804.64
2023-02-19T07:41:29.299Z,98806.16
2023-02-19T07:44:00.337Z,98810.95
2023-02-19T07:46:30.373Z,98814.21
2023-02-19T07:49:00.193Z,98818.20
2023-02-19T07:51:30.227Z,98821.66
2023-02-19T07:54:01.576Z,98819.15
2023-02-19T07:56:31.032Z,98830.68
2023-02-19T07:59:00.486Z,98827.28
2023-02-19T08:01:48.349Z,98821.23
2023-02-19T08:04:16.588Z,98825.02
2023-02-19T08:06:45.068Z,98834.23
2023-02-19T08:09:15.960Z,98829.75
2023-02-19T08:12:11.580Z,98833.20
2023-02-19T08:14:40.516Z,98834.02
2023-02-19T08:17:11.356Z,98834.22
2023-02-19T08:19:59.663Z,98838.30
2023-02-19T08:22:28.858Z,98845.09
2023-02-19T08:24:58.562Z,98853.88
2023-02-19T08:27:30.226Z,98852.20
2023-02-19T08:30:07.019Z,98856.21
2023-02-19T08:32:36.828Z,98855.83
2023-02-19T08:35:07.923Z,98844.09
2023-02-19T08:37:36.324Z,98848.04
2023-02-19T08:40:12.532Z,98852.14
2023-02-19T08:42:41.102Z,98856.00
2023-02-19T08:45:10.297Z,98850.13
2023-02-19T08:47:39.476Z,98842.32
2023-02-19T08:50:08.409Z,98842.79
2023-02-19T08:52:36.986Z,98845.67
2023-02-19T08:55:06.173Z,98847.53
2023-02-19T08:57:38.584Z,98842.66
2023-02-19T09:00:09.177Z,98848.33
2023-02-19T09:02:37.576Z,98843.98
2023-02-19T09:05:06.760Z,98845.21
2023-02-19T09:07:36.783Z,98837.88
2023-02-19T09:10:05.124Z,98836.89
2023-02-19T09:12:33.972Z,98834.63
2023-02-19T09:15:07.604Z,98828.44
2023-02-19T09:17:36.406Z,98827.95
2023-02-19T09:20:04.753Z,98827.34
2023-02-19T09:22:34.226Z,98826.62
2023-02-19T09:25:02.596Z,98828.87
2023-02-19T09:27:32.441Z,98829.58
2023-02-19T09:30:00.503Z,98819.52
2023-02-19T09:32:31.221Z,98826.28
2023-02-19T09:35:20.900Z,98826.77
2023-02-19T09:37:52.630Z,98834.16
2023-02-19T09:40:21.962Z,98830.91
2023-02-19T09:42:54.862Z,98836.38
2023-02-19T09:45:24.218Z,98842.96
2023-02-19T09:47:56.543Z,98837.62
2023-02-19T09:50:31.867Z,98830.87
2023-02-19T09:53:03.979Z,98826.30
2023-02-19T09:55:34.650Z,98828.05
2023-02-19T09:58:14.304Z,98820.70
2023-02-19T10:00:42.425Z,98812.38
2023-02-19T10:03:12.787Z,98809.13
2023-02-19T10:05:40.942Z,98805.17
2023-02-19T10:08:14.472Z,98801.06
2023-02-19T10:10:44.488Z,98806.20
2023-02-19T10:13:20.821Z,98806.70
2023-02-19T10:15:56.598Z,98798.16
2023-02-19T10:18:29.548Z,98789.93
2023-02-19T10:20:57.706Z,98786.03
2023-02-19T10:23:26.258Z,98787.69
2023-02-19T10:25:58.372Z,98788.81
2023-02-19T10:28:30.514Z,98781.84
2023-02-19T10:31:02.115Z,98781.91
2023-02-19T10:33:30.768Z,98775.48
2023-02-19T10:36:06.732Z,98772.59
2023-02-19T10:38:37.018Z,98767.98
2023-02-19T10:41:21.131Z,98757.79
2023-02-19T10:43:57.884Z,98748.66
2023-02-19T10:46:28.586Z,98746.14
2023-02-19T10:49:04.667Z,98743.42
2023-02-19T10:51:35.930Z,98739.21
2023-02-19T10:54:31.693Z,98735.63
2023-02-19T10:57:17.140Z,98727.73
2023-02-19T10:59:53.287Z,98720.05
2023-02-19T11:02:21.895Z,98714.05
2023-02-19T11:05:17.285Z,98706.31
2023-02-19T11:07:54.789Z,98702.63
2023-02-19T11:10:42.409Z,98699.78
2023-02-19T11:13:16.507Z,98689.97
2023-02-19T11:15:45.020Z,98688.23
2023-02-19T11:18:13.233Z,98681.84
2023-02-19T11:20:56.314Z,98680.30
2023-02-19T11:23:32.220Z,98679.37
2023-02-19T11:26:03.827Z,98672.16
2023-02-19T11:28:32.953Z,98672.18
2023-02-19T11:31:20.066Z,98673.50
2023-02-19T11:34:01.836Z,98671.70
2023-02-19T11:36:34.424Z,98671.14
2023-02-19T11:39:17.210Z,98667.83
2023-02-19T11:41:57.496Z,98666.83
2023-02-19T11:44:44.040Z,98668.41
2023-02-19T11:47:50.874Z,98671.36
2023-02-19T11:50:50.606Z,98671.73
2023-02-19T11:53:25.343Z,98675.86
2023-02-19T11:56:44.782Z,98677.04
2023-02-19T11:59:21.614Z,98679.03
2023-02-19T12:02:14.703Z,98675.95
2023-02-19T12:04:53.484Z,98681.13
2023-02-19T12:07:49.051Z,98678.59
2023-02-19T12:10:20.392Z,98678.91
2023-02-19T12:13:10.531Z,98680.05
2023-02-19T12:19:04.147Z,98681.40
2023-02-19T12:21:51.694Z,98679.73
2023-02-19T12:24:27.341Z,98677.17
2023-02-19T12:27:02.015Z,98681.66
2023-02-19T12:29:48.208Z,98678.36
2023-02-19T12:32:16.973Z,98676.52
2023-02-19T12:34:51.618Z,98673.76
2023-02-19T12:37:31.814Z,98673.58
2023-02-19T12:40:31.795Z,98673.59
2023-02-19T12:43:23.825Z,98677.90
2023-02-19T12:45:58.278Z,98683.10
2023-02-19T12:48:39.094Z,98683.23
2023-02-19T12:51:12.078Z,98687.83
2023-02-19T12:54:01.531Z,98684.39
2023-02-19T12:56:40.228Z,98687.34
2023-02-19T12:59:23.813Z,98688.81
2023-02-19T13:02:04.226Z,98688.56
2023-02-19T13:04:39.306Z,98687.00
2023-02-19T13:07:17.348Z,98692.06
2023-02-19T13:10:22.452Z,98690.93
2023-02-19T13:12:51.815Z,98688.52
2023-02-19T13:15:41.772Z,98687.30
2023-02-19T13:18:16.477Z,98689.39
2023-02-19T13:20:51.822Z,98684.67
2023-02-19T13:23:52.679Z,98681.73
2023-02-19T13:26:33.430Z,98685.46
2023-02-19T13:29:25.079Z,98679.84
2023-02-19T13:32:21.519Z,98676.91
2023-02-19T13:35:27.647Z,98679.69
2023-02-19T13:37:56.233Z,98682.76
2023-02-19T13:40:31.173Z,98678.36
2023-02-19T13:43:00.917Z,98683.30
2023-02-19T13:45:43.468Z,98681.80
2023-02-19T13:48:46.418Z,98680.19
2023-02-19T13:51:19.164Z,98680.98
2023-02-19T13:53:48.330Z,98680.07
2023-02-19T13:56:34.990Z,98681.92
2023-02-19T13:59:34.035Z,98678.56
2023-02-19T14:02:05.276Z,98683.29
2023-02-19T14:05:00.314Z,98680.73
2023-02-19T14:07:31.876Z,98686.09
2023-02-19T14:10:02.168Z,98684.10
2023-02-19T14:12:36.945Z,98685.52
2023-02-19T14:15:30.165Z,98685.25
2023-02-19T14:17:58.890Z,98691.06
2023-02-19T14:20:45.000Z,98685.76
2023-02-19T14:23:17.621Z,98688.48
2023-02-19T14:25:53.316Z,98687.95
2023-02-19T14:28:27.821Z,98690.57
2023-02-19T14:31:01.390Z,98690.68
2023-02-19T14:33:34.938Z,98694.20
2023-02-19T14:36:44.514Z,98691.15
2023-02-19T14:39:17.505Z,98691.95
2023-02-19T14:42:15.882Z,98691.38
2023-02-19T14:44:52.616Z,98692.86
2023-02-19T14:47:22.089Z,98693.62
2023-02-19T14:49:52.387Z,98691.85
2023-02-19T14:52:24.880Z,98687.51
2023-02-19T14:54:55.716Z,98688.56
2023-02-19T14:57:45.579Z,98691.86
2023-02-19T15:00:24.228Z,98690.85
2023-02-19T15:02:54.004Z,98694.71
2023-02-19T15:05:24.515Z,98691.79
2023-02-19T15:07:53.935Z,98690.56
2023-02-19T15:10:22.157Z,98695.23
2023-02-19T15:12:58.230Z,98698.91
2023-02-19T15:15:29.255Z,98703.08
2023-02-19T15:17:57.200Z,98704.42
2023-02-19T15:20:30.509Z,98706.33
2023-02-19T15:22:59.617Z,98709.68
2023-02-19T15:25:34.064Z,98708.19
2023-02-19T15:28:24.159Z,98714.85
2023-02-19T15:30:57.846Z,98714.74
2023-02-19T15:33:29.562Z,98720.79
2023-02-19T15:35:59.315Z,98725.21
2023-02-19T15:38:29.876Z,98728.77
2023-02-19T15:41:00.678Z,98730.58
2023-02-19T15:43:59.179Z,98727.34
2023-02-19T15:46:28.017Z,98728.73
2023-02-19T15:49:13.254Z,98730.02
2023-02-19T15:51:54.940Z,98733.48
2023-02-19T15:55:00.400Z,98733.27
2023-02-19T15:57:32.723Z,98734.71
2023-02-19T16:00:07.628Z,98735.88
2023-02-19T16:02:43.906Z,98732.48
2023-02-19T16:05:24.097Z,98729.63
2023-02-19T16:08:17.460Z,98733.40
2023-02-19T16:10:54.479Z,98739.84
2023-02-19T16:13:34.016Z,98743.33
2023-02-19T16:16:15.241Z,98743.76
2023-02-19T16:18:48.179Z,98744.69
2023-02-19T16:21:20.299Z,98740.05
2023-02-19T16:23:49.957Z,98743.23
2023-02-19T16:26:18.104Z,98743.17
2023-02-19T16:28:46.395Z,98744.00
2023-02-19T16:31:15.415Z,98747.95
2023-02-19T16:33:48.652Z,98746.96
2023-02-19T16:36:18.752Z,98749.54
2023-02-19T16:39:07.056Z,98747.63
2023-02-19T16:41:41.195Z,98751.38
2023-02-19T16:44:22.027Z,98751.98
2023-02-19T16:47:27.102Z,98754.11
2023-02-19T16:50:00.520Z,98754.94
2023-02-19T16:53:02.746Z,98751.92
2023-02-19T16:55:35.263Z,98751.85
2023-02-19T16:59:19.996Z,98750.92
2023-02-19T17:01:48.330Z,98749.20
2023-02-19T17:04:16.483Z,98744.60
2023-02-19T17:06:45.668Z,98744.30
2023-02-19T17:09:14.874Z,98741.69
2023-02-19T17:11:43.063Z,98737.80
2023-02-19T17:14:11.377Z,98732.29
2023-02-19T17:16:40.654Z,98733.88
2023-02-19T17:19:18.780Z,98730.02
2023-02-19T17:21:47.696Z,98737.98
2023-02-19T17:24:21.182Z,98740.85
2023-02-19T17:26:49.848Z,98751.97
2023-02-19T17:29:20.319Z,98748.31
2023-02-19T17:31:48.721Z,98751.60
2023-02-19T17:34:17.876Z,98748.02
2023-02-19T17:36:47.171Z,98745.66
2023-02-19T17:39:15.619Z,98745.58
2023-02-19T17:41:43.865Z,98746.67
2023-02-19T17:44:13.678Z,98748.34
2023-02-19T17:46:42.119Z,98752.73
2023-02-19T17:49:11.413Z,98760.00
2023-02-19T17:51:40.556Z,98759.79
2023-02-19T17:54:11.315Z,98763.88
2023-02-19T17:56:43.436Z,98766.81
2023-02-19T17:59:12.479Z,98762.40
2023-02-19T18:01:40.812Z,98760.46
2023-02-19T18:04:11.399Z,98761.95
2023-02-19T18:06:39.713Z,98760.17
2023-02-19T18:09:08.150Z,98755.95
2023-02-19T18:11:37.627Z,98765.23
2023-02-19T18:14:14.634Z,98767.14
2023-02-19T18:16:50.009Z,98780.67
2023-02-19T18:19:18.659Z,98787.63
2023-02-19T18:21:49.542Z,98785.92
2023-02-19T18:24:21.526Z,98799.92
2023-02-19T18:26:50.388Z,98804.83
2023-02-19T18:29:20.451Z,98804.30
2023-02-19T18:31:50.089Z,98803.23
2023-02-19T18:34:19.189Z,98807.17
2023-02-19T18:36:51.160Z,98806.71
2023-02-19T18:39:19.616Z,98806.14
2023-02-19T18:41:53.293Z,98807.42
2023-02-19T18:44:22.457Z,98804.14
2023-02-19T18:46:51.471Z,98802.13
2023-02-19T18:49:19.784Z,98804.52
2023-02-19T18:51:48.260Z,98805.66
2023-02-19T18:54:17.489Z,98809.95
2023-02-19T18:56:46.479Z,98813.02
2023-02-19T18:59:16.486Z,98811.77
2023-02-19T19:01:45.081Z,98813.89
2023-02-19T19:04:15.749Z,98810.60
2023-02-19T19:06:44.938Z,98810.59
2023-02-19T19:09:13.905Z,98807.86
2023-02-19T19:11:44.720Z,98808.88
2023-02-19T19:14:13.801Z,98808.77
2023-02-19T19:16:43.468Z,98812.80
2023-02-19T19:19:12.950Z,98817.98
2023-02-19T19:21:41.549Z,98823.15
2023-02-19T19:24:09.966Z,98827.64
2023-02-19T19:26:45.085Z,98834.77
2023-02-19T19:29:16.014Z,98840.34
2023-02-19T19:31:44.793Z,98845.92
2023-02-19T19:34:13.373Z,98855.02
2023-02-19T19:36:41.621Z,98859.38
2023-02-19T19:39:10.653Z,98865.28
2023-02-19T19:41:41.609Z,98868.88
2023-02-19T19:44:11.557Z,98871.20
2023-02-19T19:46:45.435Z,98873.33
2023-02-19T19:49:20.262Z,98871.84
2023-02-19T19:51:50.100Z,98877.10
2023-02-19T19:54:18.523Z,98879.42
2023-02-19T19:56:51.282Z,98882.80
2023-02-19T19:59:19.457Z,98885.02
2023-02-19T20:01:51.422Z,98890.05
2023-02-19T20:04:21.747Z,98894.69
2023-02-19T20:06:50.652Z,98893.54
2023-02-19T20:09:26.007Z,98897.43
2023-02-19T20:11:55.364Z,98901.48
2023-02-19T20:14:24.795Z,98901.43
2023-02-19T20:16:55.211Z,98904.71
2023-02-19T20:19:26.398Z,98907.77
2023-02-19T20:21:55.343Z,98911.47
2023-02-19T20:24:26.299Z,98919.18
2023-02-19T20:26:59.909Z,98924.02
2023-02-19T20:29:32.380Z,98925.52
2023-02-19T20:32:03.825Z,98927.62
2023-02-19T20:34:38.444Z,98929.98
2023-02-19T20:37:07.746Z,98929.19
2023-02-19T20:39:38.148Z,98937.34
2023-02-19T20:42:09.394Z,98938.46
2023-02-19T20:44:37.948Z,98940.50
2023-02-19T20:47:06.611Z,98945.65
2023-02-19T20:49:37.207Z,98952.45
2023-02-19T20:52:07.059Z,98952.37
2023-02-19T20:54:38.464Z,98957.15
2023-02-19T20:57:06.711Z,98957.29
2023-02-19T20:59:35.598Z,98959.04
2023-02-19T21:02:14.464Z,98966.31
2023-02-19T21:04:44.669Z,98968.83
2023-02-19T21:07:12.833Z,98973.69
2023-02-19T21:09:41.136Z,98969.53
2023-02-19T21:12:11.275Z,98970.98
2023-02-19T21:14:41.754Z,98970.60
2023-02-19T21:17:10.954Z,98972.34
2023-02-19T21:19:40.619Z,98974.85
2023-02-19T21:22:08.689Z,98977.67
2023-02-19T21:24:37.354Z,98976.98
2023-02-19T21:27:08.149Z,98977.27
2023-02-19T21:29:36.348Z,98974.54
2023-02-19T21:32:07.373Z,98981.43
2023-02-19T21:34:38.499Z,98982.35
2023-02-19T21:37:09.079Z,98989.98
2023-02-19T21:39:39.547Z,98989.58
2023-02-19T21:42:07.789Z,98991.80
2023-02-19T21:44:43.221Z,98996.63
2023-02-19T21:47:17.184Z,99001.05
2023-02-19T21:49:46.473Z,98996.87
2023-02-19T21:52:16.319Z,98994.80
2023-02-19T21:54:45.663Z,98997.23
2023-02-19T21:57:15.116Z,98996.64
2023-02-19T21:59:45.806Z,98998.22
2023-02-19T22:02:14.753Z,98997.40
2023-02-19T22:04:44.353Z,99001.56
2023-02-19T22:07:13.904Z,99007.53
2023-02-19T22:09:43.027Z,99004.90
2023-02-19T22:12:13.994Z,99008.55
2023-02-19T22:14:44.570Z,99012.02
2023-02-19T22:17:14.580Z,99014.09
2023-02-19T22:19:43.354Z,99012.88
2023-02-19T22:22:11.827Z,99011.71
2023-02-19T22:24:40.840Z,99010.92
2023-02-19T22:27:10.549Z,99010.17
2023-02-19T22:29:39.188Z,99008.94
2023-02-19T22:32:10.113Z,99013.73
2023-02-19T22:34:40.541Z,99014.33
2023-02-19T22:37:10.311Z,99015.19
2023-02-19T22:39:43.637Z,99014.32
2023-02-19T22:42:12.404Z,99012.80
2023-02-19T22:44:44.537Z,99020.98
2023-02-19T22:47:14.731Z,99022.20
2023-02-19T22:49:45.609Z,99020.85
2023-02-19T22:52:14.916Z,99022.14
2023-02-19T22:54:44.554Z,99021.66
2023-02-19T22:57:12.914Z,99025.43
2023-02-19T22:59:42.114Z,99021.27
2023-02-19T23:02:10.408Z,99023.44
2023-02-19T23:04:38.753Z,99029.02
2023-02-19T23:07:07.614Z,99025.34
2023-02-19T23:09:35.951Z,99030.38
2023-02-19T23:12:06.314Z,99030.73
2023-02-19T23:14:34.965Z,99029.41
2023-02-19T23:17:03.668Z,99031.75
2023-02-19T23:19:32.637Z,99029.75
2023-02-19T23:22:01.876Z,99030.57
2023-02-19T23:24:30.665Z,99031.52
2023-02-19T23:27:00.927Z,99034.32
2023-02-19T23:29:31.022Z,99040.61
2023-02-19T23:32:00.566Z,99043.98
2023-02-19T23:34:29.466Z,99040.68
2023-02-19T23:37:00.279Z,99039.43
2023-02-19T23:39:28.911Z,99042.98
2023-02-19T23:42:03.296Z,99036.65
2023-02-19T23:44:32.157Z,99035.57
2023-02-19T23:47:00.788Z,99042.45
2023-02-19T23:49:29.008Z,99042.84
2023-02-19T23:51:57.338Z,99042.30
2023-02-19T23:54:26.178Z,99042.52
2023-02-19T23:56:55.520Z,99045.17
2023-02-19T23:59:24.093Z,99046.20
